sensor_id;sensor_type;location;lat;lon;timestamp;P1;durP1;ratioP1;P2;durP2;ratioP2
18338;SDS011;9295;44.484;11.240;2023-12-20T00:01:29;7.43;;;4.70;;
18338;SDS011;9295;44.484;11.240;2023-12-20T00:03:57;10.80;;;5.77;;
18338;SDS011;9295;44.484;11.240;2023-12-20T00:06:26;10.93;;;5.43;;
18338;SDS011;9295;44.484;11.240;2023-12-20T00:08:56;11.73;;;5.13;;
18338;SDS011;9295;44.484;11.240;2023-12-20T00:11:25;10.43;;;4.50;;
18338;SDS011;9295;44.484;11.240;2023-12-20T00:13:53;8.63;;;4.63;;
18338;SDS011;9295;44.484;11.240;2023-12-20T00:16:22;9.33;;;4.60;;
18338;SDS011;9295;44.484;11.240;2023-12-20T00:18:51;9.17;;;5.30;;
18338;SDS011;9295;44.484;11.240;2023-12-20T00:21:20;8.03;;;4.83;;
18338;SDS011;9295;44.484;11.240;2023-12-20T00:23:48;10.00;;;4.80;;
18338;SDS011;9295;44.484;11.240;2023-12-20T00:26:18;9.73;;;4.97;;
18338;SDS011;9295;44.484;11.240;2023-12-20T00:28:47;9.87;;;4.50;;
18338;SDS011;9295;44.484;11.240;2023-12-20T00:31:15;8.57;;;4.87;;
18338;SDS011;9295;44.484;11.240;2023-12-20T00:33:44;8.00;;;4.17;;
18338;SDS011;9295;44.484;11.240;2023-12-20T00:36:14;8.90;;;4.83;;
18338;SDS011;9295;44.484;11.240;2023-12-20T00:38:42;9.53;;;4.77;;
18338;SDS011;9295;44.484;11.240;2023-12-20T00:41:11;7.30;;;4.53;;
18338;SDS011;9295;44.484;11.240;2023-12-20T00:43:41;7.80;;;4.60;;
18338;SDS011;9295;44.484;11.240;2023-12-20T00:46:09;8.30;;;4.60;;
18338;SDS011;9295;44.484;11.240;2023-12-20T00:48:38;10.10;;;5.00;;
18338;SDS011;9295;44.484;11.240;2023-12-20T00:51:08;8.37;;;4.63;;
18338;SDS011;9295;44.484;11.240;2023-12-20T00:53:37;7.77;;;4.80;;
18338;SDS011;9295;44.484;11.240;2023-12-20T00:56:06;8.30;;;4.90;;
18338;SDS011;9295;44.484;11.240;2023-12-20T00:58:35;9.67;;;5.57;;
18338;SDS011;9295;44.484;11.240;2023-12-20T01:01:04;9.73;;;4.83;;
18338;SDS011;9295;44.484;11.240;2023-12-20T01:03:33;9.97;;;4.83;;
18338;SDS011;9295;44.484;11.240;2023-12-20T01:06:03;9.07;;;5.13;;
18338;SDS011;9295;44.484;11.240;2023-12-20T01:08:32;8.30;;;4.80;;
18338;SDS011;9295;44.484;11.240;2023-12-20T01:11:03;10.57;;;4.60;;
18338;SDS011;9295;44.484;11.240;2023-12-20T01:13:32;10.17;;;5.20;;
18338;SDS011;9295;44.484;11.240;2023-12-20T01:16:01;7.93;;;4.17;;
18338;SDS011;9295;44.484;11.240;2023-12-20T01:18:32;13.00;;;4.90;;
18338;SDS011;9295;44.484;11.240;2023-12-20T01:21:01;9.57;;;4.40;;
18338;SDS011;9295;44.484;11.240;2023-12-20T01:23:30;8.37;;;3.50;;
18338;SDS011;9295;44.484;11.240;2023-12-20T01:25:59;8.80;;;4.80;;
18338;SDS011;9295;44.484;11.240;2023-12-20T01:28:29;7.47;;;4.37;;
18338;SDS011;9295;44.484;11.240;2023-12-20T01:30:57;9.70;;;4.40;;
18338;SDS011;9295;44.484;11.240;2023-12-20T01:33:26;9.00;;;4.60;;
18338;SDS011;9295;44.484;11.240;2023-12-20T01:35:56;8.53;;;4.03;;
18338;SDS011;9295;44.484;11.240;2023-12-20T01:38:24;8.90;;;4.47;;
18338;SDS011;9295;44.484;11.240;2023-12-20T01:40:53;8.63;;;4.30;;
18338;SDS011;9295;44.484;11.240;2023-12-20T01:43:21;9.40;;;4.50;;
18338;SDS011;9295;44.484;11.240;2023-12-20T01:45:53;7.67;;;3.77;;
18338;SDS011;9295;44.484;11.240;2023-12-20T01:48:24;7.93;;;4.00;;
18338;SDS011;9295;44.484;11.240;2023-12-20T01:50:53;7.87;;;3.83;;
18338;SDS011;9295;44.484;11.240;2023-12-20T01:53:25;7.97;;;4.00;;
18338;SDS011;9295;44.484;11.240;2023-12-20T01:55:56;8.93;;;3.90;;
18338;SDS011;9295;44.484;11.240;2023-12-20T01:58:26;6.97;;;3.67;;
18338;SDS011;9295;44.484;11.240;2023-12-20T02:00:55;7.97;;;4.03;;
18338;SDS011;9295;44.484;11.240;2023-12-20T02:03:25;10.43;;;4.43;;
18338;SDS011;9295;44.484;11.240;2023-12-20T02:05:53;8.50;;;4.07;;
18338;SDS011;9295;44.484;11.240;2023-12-20T02:08:22;9.67;;;3.90;;
18338;SDS011;9295;44.484;11.240;2023-12-20T02:10:52;10.07;;;4.90;;
18338;SDS011;9295;44.484;11.240;2023-12-20T02:13:21;6.60;;;3.57;;
18338;SDS011;9295;44.484;11.240;2023-12-20T02:15:50;7.60;;;3.87;;
18338;SDS011;9295;44.484;11.240;2023-12-20T02:18:18;7.73;;;4.50;;
18338;SDS011;9295;44.484;11.240;2023-12-20T02:20:47;7.43;;;4.27;;
18338;SDS011;9295;44.484;11.240;2023-12-20T02:23:17;7.00;;;4.03;;
18338;SDS011;9295;44.484;11.240;2023-12-20T02:25:46;14.80;;;7.80;;
18338;SDS011;9295;44.484;11.240;2023-12-20T02:28:15;11.87;;;6.70;;
18338;SDS011;9295;44.484;11.240;2023-12-20T02:30:44;8.27;;;4.77;;
18338;SDS011;9295;44.484;11.240;2023-12-20T02:33:12;6.40;;;3.67;;
18338;SDS011;9295;44.484;11.240;2023-12-20T02:35:43;8.63;;;4.60;;
18338;SDS011;9295;44.484;11.240;2023-12-20T02:38:11;8.53;;;4.70;;
18338;SDS011;9295;44.484;11.240;2023-12-20T02:40:41;12.40;;;5.47;;
18338;SDS011;9295;44.484;11.240;2023-12-20T02:43:15;7.70;;;4.20;;
18338;SDS011;9295;44.484;11.240;2023-12-20T02:45:44;7.67;;;4.10;;
18338;SDS011;9295;44.484;11.240;2023-12-20T02:48:13;10.30;;;4.43;;
18338;SDS011;9295;44.484;11.240;2023-12-20T02:50:41;8.30;;;5.10;;
18338;SDS011;9295;44.484;11.240;2023-12-20T02:53:10;7.87;;;4.10;;
18338;SDS011;9295;44.484;11.240;2023-12-20T02:55:38;5.73;;;3.30;;
18338;SDS011;9295;44.484;11.240;2023-12-20T02:58:08;6.80;;;3.70;;
18338;SDS011;9295;44.484;11.240;2023-12-20T03:00:37;5.63;;;3.53;;
18338;SDS011;9295;44.484;11.240;2023-12-20T03:03:06;8.07;;;3.90;;
18338;SDS011;9295;44.484;11.240;2023-12-20T03:05:34;9.03;;;4.30;;
18338;SDS011;9295;44.484;11.240;2023-12-20T03:08:03;6.83;;;3.57;;
18338;SDS011;9295;44.484;11.240;2023-12-20T03:10:32;5.83;;;3.10;;
18338;SDS011;9295;44.484;11.240;2023-12-20T03:13:00;7.70;;;4.80;;
18338;SDS011;9295;44.484;11.240;2023-12-20T03:15:30;8.23;;;4.20;;
18338;SDS011;9295;44.484;11.240;2023-12-20T03:17:59;10.33;;;3.87;;
18338;SDS011;9295;44.484;11.240;2023-12-20T03:20:28;8.57;;;4.33;;
18338;SDS011;9295;44.484;11.240;2023-12-20T03:22:58;9.33;;;3.50;;
18338;SDS011;9295;44.484;11.240;2023-12-20T03:25:27;7.17;;;3.83;;
18338;SDS011;9295;44.484;11.240;2023-12-20T03:27:55;4.83;;;3.17;;
18338;SDS011;9295;44.484;11.240;2023-12-20T03:30:24;8.60;;;3.80;;
18338;SDS011;9295;44.484;11.240;2023-12-20T03:32:54;7.10;;;3.60;;
18338;SDS011;9295;44.484;11.240;2023-12-20T03:35:22;6.20;;;3.50;;
18338;SDS011;9295;44.484;11.240;2023-12-20T03:37:51;6.93;;;3.33;;
18338;SDS011;9295;44.484;11.240;2023-12-20T03:40:20;7.10;;;3.00;;
18338;SDS011;9295;44.484;11.240;2023-12-20T03:42:49;6.13;;;3.50;;
18338;SDS011;9295;44.484;11.240;2023-12-20T03:45:18;8.87;;;3.80;;
18338;SDS011;9295;44.484;11.240;2023-12-20T03:47:46;6.13;;;3.43;;
18338;SDS011;9295;44.484;11.240;2023-12-20T03:50:17;7.20;;;4.20;;
18338;SDS011;9295;44.484;11.240;2023-12-20T03:52:46;7.80;;;4.37;;
18338;SDS011;9295;44.484;11.240;2023-12-20T03:55:14;7.77;;;3.60;;
18338;SDS011;9295;44.484;11.240;2023-12-20T03:57:43;7.83;;;3.73;;
18338;SDS011;9295;44.484;11.240;2023-12-20T04:00:13;7.90;;;3.67;;
18338;SDS011;9295;44.484;11.240;2023-12-20T04:02:42;8.50;;;3.70;;
18338;SDS011;9295;44.484;11.240;2023-12-20T04:05:11;16.47;;;3.77;;
18338;SDS011;9295;44.484;11.240;2023-12-20T04:07:41;6.00;;;3.60;;
18338;SDS011;9295;44.484;11.240;2023-12-20T04:10:11;10.10;;;3.63;;
18338;SDS011;9295;44.484;11.240;2023-12-20T04:12:39;7.90;;;4.17;;
18338;SDS011;9295;44.484;11.240;2023-12-20T04:15:08;8.07;;;4.67;;
18338;SDS011;9295;44.484;11.240;2023-12-20T04:17:38;7.77;;;4.10;;
18338;SDS011;9295;44.484;11.240;2023-12-20T04:20:07;8.40;;;4.30;;
18338;SDS011;9295;44.484;11.240;2023-12-20T04:22:36;7.57;;;3.90;;
18338;SDS011;9295;44.484;11.240;2023-12-20T04:25:07;5.87;;;3.73;;
18338;SDS011;9295;44.484;11.240;2023-12-20T04:27:36;7.23;;;4.10;;
18338;SDS011;9295;44.484;11.240;2023-12-20T04:30:05;9.70;;;4.90;;
18338;SDS011;9295;44.484;11.240;2023-12-20T04:32:35;8.40;;;4.97;;
18338;SDS011;9295;44.484;11.240;2023-12-20T04:35:04;11.33;;;6.30;;
18338;SDS011;9295;44.484;11.240;2023-12-20T04:37:34;11.20;;;6.17;;
18338;SDS011;9295;44.484;11.240;2023-12-20T04:40:02;10.60;;;5.60;;
18338;SDS011;9295;44.484;11.240;2023-12-20T04:42:34;10.03;;;5.70;;
18338;SDS011;9295;44.484;11.240;2023-12-20T04:45:03;10.63;;;5.83;;
18338;SDS011;9295;44.484;11.240;2023-12-20T04:47:32;14.03;;;6.07;;
18338;SDS011;9295;44.484;11.240;2023-12-20T04:50:01;11.17;;;5.90;;
18338;SDS011;9295;44.484;11.240;2023-12-20T04:52:31;8.80;;;5.40;;
18338;SDS011;9295;44.484;11.240;2023-12-20T04:54:59;11.63;;;5.00;;
18338;SDS011;9295;44.484;11.240;2023-12-20T04:57:28;9.87;;;5.27;;
18338;SDS011;9295;44.484;11.240;2023-12-20T04:59:58;10.93;;;4.97;;
18338;SDS011;9295;44.484;11.240;2023-12-20T05:02:27;12.17;;;5.67;;
18338;SDS011;9295;44.484;11.240;2023-12-20T05:04:55;14.50;;;4.50;;
18338;SDS011;9295;44.484;11.240;2023-12-20T05:07:24;10.13;;;5.30;;
18338;SDS011;9295;44.484;11.240;2023-12-20T05:09:53;10.97;;;5.40;;
18338;SDS011;9295;44.484;11.240;2023-12-20T05:12:21;9.03;;;4.83;;
18338;SDS011;9295;44.484;11.240;2023-12-20T05:14:51;8.57;;;4.83;;
18338;SDS011;9295;44.484;11.240;2023-12-20T05:17:21;11.27;;;5.40;;
18338;SDS011;9295;44.484;11.240;2023-12-20T05:19:50;13.07;;;6.60;;
18338;SDS011;9295;44.484;11.240;2023-12-20T05:22:19;12.20;;;6.37;;
18338;SDS011;9295;44.484;11.240;2023-12-20T05:24:48;9.57;;;5.00;;
18338;SDS011;9295;44.484;11.240;2023-12-20T05:27:17;9.17;;;5.47;;
18338;SDS011;9295;44.484;11.240;2023-12-20T05:29:45;7.60;;;4.43;;
18338;SDS011;9295;44.484;11.240;2023-12-20T05:32:14;7.47;;;4.17;;
18338;SDS011;9295;44.484;11.240;2023-12-20T05:34:44;6.60;;;4.33;;
18338;SDS011;9295;44.484;11.240;2023-12-20T05:37:13;8.57;;;4.33;;
18338;SDS011;9295;44.484;11.240;2023-12-20T05:39:41;10.47;;;3.70;;
18338;SDS011;9295;44.484;11.240;2023-12-20T05:42:10;10.87;;;5.03;;
18338;SDS011;9295;44.484;11.240;2023-12-20T05:44:38;7.20;;;4.27;;
18338;SDS011;9295;44.484;11.240;2023-12-20T05:47:07;8.13;;;4.00;;
18338;SDS011;9295;44.484;11.240;2023-12-20T05:49:35;6.63;;;4.00;;
18338;SDS011;9295;44.484;11.240;2023-12-20T05:52:06;7.77;;;3.97;;
18338;SDS011;9295;44.484;11.240;2023-12-20T05:54:34;5.27;;;3.37;;
18338;SDS011;9295;44.484;11.240;2023-12-20T05:57:03;8.70;;;5.00;;
18338;SDS011;9295;44.484;11.240;2023-12-20T05:59:32;6.77;;;4.17;;
18338;SDS011;9295;44.484;11.240;2023-12-20T06:02:00;8.50;;;4.10;;
18338;SDS011;9295;44.484;11.240;2023-12-20T06:04:30;7.30;;;3.80;;
18338;SDS011;9295;44.484;11.240;2023-12-20T06:06:59;7.33;;;3.57;;
18338;SDS011;9295;44.484;11.240;2023-12-20T06:09:30;6.83;;;3.90;;
18338;SDS011;9295;44.484;11.240;2023-12-20T06:11:58;7.17;;;4.10;;
18338;SDS011;9295;44.484;11.240;2023-12-20T06:14:27;7.83;;;4.30;;
18338;SDS011;9295;44.484;11.240;2023-12-20T06:16:57;10.83;;;4.87;;
18338;SDS011;9295;44.484;11.240;2023-12-20T06:19:26;10.50;;;4.60;;
18338;SDS011;9295;44.484;11.240;2023-12-20T06:21:54;8.27;;;4.30;;
18338;SDS011;9295;44.484;11.240;2023-12-20T06:24:23;7.97;;;4.87;;
18338;SDS011;9295;44.484;11.240;2023-12-20T06:26:56;8.03;;;4.30;;
18338;SDS011;9295;44.484;11.240;2023-12-20T06:29:24;9.37;;;4.30;;
18338;SDS011;9295;44.484;11.240;2023-12-20T06:31:53;9.53;;;4.40;;
18338;SDS011;9295;44.484;11.240;2023-12-20T06:34:22;8.07;;;4.57;;
18338;SDS011;9295;44.484;11.240;2023-12-20T06:36:50;7.83;;;4.17;;
18338;SDS011;9295;44.484;11.240;2023-12-20T06:39:19;11.00;;;5.20;;
18338;SDS011;9295;44.484;11.240;2023-12-20T06:41:47;13.40;;;6.23;;
18338;SDS011;9295;44.484;11.240;2023-12-20T06:44:17;9.20;;;5.47;;
18338;SDS011;9295;44.484;11.240;2023-12-20T06:46:46;10.30;;;5.60;;
18338;SDS011;9295;44.484;11.240;2023-12-20T06:49:13;12.00;;;8.70;;
18338;SDS011;9295;44.484;11.240;2023-12-20T06:51:42;16.20;;;7.97;;
18338;SDS011;9295;44.484;11.240;2023-12-20T06:54:11;13.53;;;7.43;;
18338;SDS011;9295;44.484;11.240;2023-12-20T06:56:40;13.00;;;7.03;;
18338;SDS011;9295;44.484;11.240;2023-12-20T06:59:09;12.13;;;6.17;;
18338;SDS011;9295;44.484;11.240;2023-12-20T07:01:39;13.83;;;6.23;;
18338;SDS011;9295;44.484;11.240;2023-12-20T07:04:08;12.83;;;6.67;;
18338;SDS011;9295;44.484;11.240;2023-12-20T07:06:38;13.00;;;7.10;;
18338;SDS011;9295;44.484;11.240;2023-12-20T07:09:07;14.03;;;7.00;;
18338;SDS011;9295;44.484;11.240;2023-12-20T07:11:37;13.03;;;6.87;;
18338;SDS011;9295;44.484;11.240;2023-12-20T07:14:05;11.83;;;6.50;;
18338;SDS011;9295;44.484;11.240;2023-12-20T07:16:34;11.00;;;6.30;;
18338;SDS011;9295;44.484;11.240;2023-12-20T07:19:04;10.43;;;6.03;;
18338;SDS011;9295;44.484;11.240;2023-12-20T07:21:33;10.23;;;6.27;;
18338;SDS011;9295;44.484;11.240;2023-12-20T07:24:01;10.50;;;6.00;;
18338;SDS011;9295;44.484;11.240;2023-12-20T07:26:30;11.37;;;6.20;;
18338;SDS011;9295;44.484;11.240;2023-12-20T07:28:59;11.27;;;6.40;;
18338;SDS011;9295;44.484;11.240;2023-12-20T07:31:28;10.60;;;5.10;;
18338;SDS011;9295;44.484;11.240;2023-12-20T07:33:56;8.60;;;4.83;;
18338;SDS011;9295;44.484;11.240;2023-12-20T07:36:26;9.17;;;5.53;;
18338;SDS011;9295;44.484;11.240;2023-12-20T07:38:55;9.77;;;5.80;;
18338;SDS011;9295;44.484;11.240;2023-12-20T07:41:23;13.33;;;6.30;;
18338;SDS011;9295;44.484;11.240;2023-12-20T07:43:52;15.53;;;5.90;;
18338;SDS011;9295;44.484;11.240;2023-12-20T07:46:21;19.30;;;7.63;;
18338;SDS011;9295;44.484;11.240;2023-12-20T07:48:50;13.80;;;7.87;;
18338;SDS011;9295;44.484;11.240;2023-12-20T07:51:19;15.00;;;7.17;;
18338;SDS011;9295;44.484;11.240;2023-12-20T07:53:49;11.60;;;7.40;;
18338;SDS011;9295;44.484;11.240;2023-12-20T07:56:18;14.03;;;7.40;;
18338;SDS011;9295;44.484;11.240;2023-12-20T07:58:47;15.33;;;7.77;;
18338;SDS011;9295;44.484;11.240;2023-12-20T08:01:19;13.97;;;6.97;;
18338;SDS011;9295;44.484;11.240;2023-12-20T08:03:49;13.47;;;6.70;;
18338;SDS011;9295;44.484;11.240;2023-12-20T08:06:18;15.67;;;7.00;;
18338;SDS011;9295;44.484;11.240;2023-12-20T08:08:48;16.87;;;6.70;;
18338;SDS011;9295;44.484;11.240;2023-12-20T08:11:28;12.47;;;6.60;;
18338;SDS011;9295;44.484;11.240;2023-12-20T08:13:57;16.53;;;6.97;;
18338;SDS011;9295;44.484;11.240;2023-12-20T08:16:25;14.10;;;6.40;;
18338;SDS011;9295;44.484;11.240;2023-12-20T08:18:54;14.30;;;6.97;;
18338;SDS011;9295;44.484;11.240;2023-12-20T08:21:23;11.37;;;6.70;;
18338;SDS011;9295;44.484;11.240;2023-12-20T08:23:53;12.23;;;7.50;;
18338;SDS011;9295;44.484;11.240;2023-12-20T08:26:21;12.63;;;7.10;;
18338;SDS011;9295;44.484;11.240;2023-12-20T08:28:51;19.30;;;9.37;;
18338;SDS011;9295;44.484;11.240;2023-12-20T08:31:19;25.90;;;12.33;;
18338;SDS011;9295;44.484;11.240;2023-12-20T08:33:49;26.17;;;13.10;;
18338;SDS011;9295;44.484;11.240;2023-12-20T08:36:18;27.37;;;13.70;;
18338;SDS011;9295;44.484;11.240;2023-12-20T08:38:48;28.20;;;14.00;;
18338;SDS011;9295;44.484;11.240;2023-12-20T08:41:18;31.83;;;14.43;;
18338;SDS011;9295;44.484;11.240;2023-12-20T08:43:47;27.60;;;13.47;;
18338;SDS011;9295;44.484;11.240;2023-12-20T08:46:15;28.00;;;13.80;;
18338;SDS011;9295;44.484;11.240;2023-12-20T08:48:44;33.90;;;14.37;;
18338;SDS011;9295;44.484;11.240;2023-12-20T08:51:13;26.00;;;11.70;;
18338;SDS011;9295;44.484;11.240;2023-12-20T08:53:42;27.67;;;12.10;;
18338;SDS011;9295;44.484;11.240;2023-12-20T08:56:12;20.70;;;12.03;;
18338;SDS011;9295;44.484;11.240;2023-12-20T08:58:42;24.80;;;13.33;;
18338;SDS011;9295;44.484;11.240;2023-12-20T09:01:11;19.33;;;12.20;;
18338;SDS011;9295;44.484;11.240;2023-12-20T09:03:39;26.90;;;12.73;;
18338;SDS011;9295;44.484;11.240;2023-12-20T09:06:08;24.20;;;12.73;;
18338;SDS011;9295;44.484;11.240;2023-12-20T09:08:37;26.17;;;13.30;;
18338;SDS011;9295;44.484;11.240;2023-12-20T09:11:06;19.40;;;11.27;;
18338;SDS011;9295;44.484;11.240;2023-12-20T09:13:35;20.73;;;12.80;;
18338;SDS011;9295;44.484;11.240;2023-12-20T09:16:05;24.03;;;12.60;;
18338;SDS011;9295;44.484;11.240;2023-12-20T09:18:34;19.80;;;11.10;;
18338;SDS011;9295;44.484;11.240;2023-12-20T09:21:02;19.90;;;10.90;;
18338;SDS011;9295;44.484;11.240;2023-12-20T09:23:31;20.97;;;12.00;;
18338;SDS011;9295;44.484;11.240;2023-12-20T09:26:00;23.00;;;12.40;;
18338;SDS011;9295;44.484;11.240;2023-12-20T09:28:28;21.60;;;12.30;;
18338;SDS011;9295;44.484;11.240;2023-12-20T09:30:59;19.20;;;12.03;;
18338;SDS011;9295;44.484;11.240;2023-12-20T09:33:29;25.03;;;11.93;;
18338;SDS011;9295;44.484;11.240;2023-12-20T09:35:58;32.23;;;12.90;;
18338;SDS011;9295;44.484;11.240;2023-12-20T09:38:27;27.70;;;13.37;;
18338;SDS011;9295;44.484;11.240;2023-12-20T09:40:56;23.87;;;14.23;;
18338;SDS011;9295;44.484;11.240;2023-12-20T09:43:25;25.53;;;13.97;;
18338;SDS011;9295;44.484;11.240;2023-12-20T09:45:55;23.90;;;13.43;;
18338;SDS011;9295;44.484;11.240;2023-12-20T09:48:31;30.43;;;14.20;;
18338;SDS011;9295;44.484;11.240;2023-12-20T09:51:01;23.00;;;12.90;;
18338;SDS011;9295;44.484;11.240;2023-12-20T09:53:30;25.80;;;13.53;;
18338;SDS011;9295;44.484;11.240;2023-12-20T09:56:02;22.73;;;12.17;;
18338;SDS011;9295;44.484;11.240;2023-12-20T09:58:31;20.00;;;12.20;;
18338;SDS011;9295;44.484;11.240;2023-12-20T10:01:00;27.30;;;12.63;;
18338;SDS011;9295;44.484;11.240;2023-12-20T10:03:31;23.30;;;13.13;;
18338;SDS011;9295;44.484;11.240;2023-12-20T10:06:00;23.50;;;13.07;;
18338;SDS011;9295;44.484;11.240;2023-12-20T10:08:29;21.80;;;13.50;;
18338;SDS011;9295;44.484;11.240;2023-12-20T10:10:59;21.23;;;12.63;;
18338;SDS011;9295;44.484;11.240;2023-12-20T10:13:30;23.43;;;13.03;;
18338;SDS011;9295;44.484;11.240;2023-12-20T10:15:59;21.40;;;12.87;;
18338;SDS011;9295;44.484;11.240;2023-12-20T10:18:28;22.40;;;12.90;;
18338;SDS011;9295;44.484;11.240;2023-12-20T10:21:06;26.33;;;12.80;;
18338;SDS011;9295;44.484;11.240;2023-12-20T10:23:37;20.93;;;12.40;;
18338;SDS011;9295;44.484;11.240;2023-12-20T10:26:07;18.23;;;11.63;;
18338;SDS011;9295;44.484;11.240;2023-12-20T10:28:36;23.83;;;13.23;;
18338;SDS011;9295;44.484;11.240;2023-12-20T10:31:05;20.73;;;11.93;;
18338;SDS011;9295;44.484;11.240;2023-12-20T10:33:34;22.40;;;13.23;;
18338;SDS011;9295;44.484;11.240;2023-12-20T10:36:03;28.30;;;12.97;;
18338;SDS011;9295;44.484;11.240;2023-12-20T10:38:34;20.07;;;11.47;;
18338;SDS011;9295;44.484;11.240;2023-12-20T10:41:07;22.77;;;11.80;;
18338;SDS011;9295;44.484;11.240;2023-12-20T10:43:37;23.77;;;12.50;;
18338;SDS011;9295;44.484;11.240;2023-12-20T10:46:07;20.37;;;12.17;;
18338;SDS011;9295;44.484;11.240;2023-12-20T10:48:36;21.70;;;12.50;;
18338;SDS011;9295;44.484;11.240;2023-12-20T10:51:08;21.33;;;11.40;;
18338;SDS011;9295;44.484;11.240;2023-12-20T10:53:38;21.43;;;12.00;;
18338;SDS011;9295;44.484;11.240;2023-12-20T10:56:08;23.17;;;12.13;;
18338;SDS011;9295;44.484;11.240;2023-12-20T10:58:40;20.30;;;12.93;;
18338;SDS011;9295;44.484;11.240;2023-12-20T11:01:10;23.63;;;11.83;;
18338;SDS011;9295;44.484;11.240;2023-12-20T11:03:43;25.53;;;12.03;;
18338;SDS011;9295;44.484;11.240;2023-12-20T11:06:19;22.20;;;12.40;;
18338;SDS011;9295;44.484;11.240;2023-12-20T11:09:01;20.97;;;12.20;;
18338;SDS011;9295;44.484;11.240;2023-12-20T11:11:42;29.43;;;13.60;;
18338;SDS011;9295;44.484;11.240;2023-12-20T11:14:24;22.30;;;12.17;;
18338;SDS011;9295;44.484;11.240;2023-12-20T11:17:07;23.30;;;12.07;;
18338;SDS011;9295;44.484;11.240;2023-12-20T11:19:36;27.47;;;12.93;;
18338;SDS011;9295;44.484;11.240;2023-12-20T11:22:06;20.80;;;11.73;;
18338;SDS011;9295;44.484;11.240;2023-12-20T11:24:36;20.73;;;11.60;;
18338;SDS011;9295;44.484;11.240;2023-12-20T11:27:12;21.27;;;11.57;;
18338;SDS011;9295;44.484;11.240;2023-12-20T11:29:41;20.10;;;11.73;;
18338;SDS011;9295;44.484;11.240;2023-12-20T11:34:58;26.40;;;12.17;;
18338;SDS011;9295;44.484;11.240;2023-12-20T11:37:30;20.37;;;12.10;;
18338;SDS011;9295;44.484;11.240;2023-12-20T11:40:02;28.37;;;12.97;;
18338;SDS011;9295;44.484;11.240;2023-12-20T11:42:37;27.00;;;12.20;;
18338;SDS011;9295;44.484;11.240;2023-12-20T11:45:08;25.30;;;13.60;;
18338;SDS011;9295;44.484;11.240;2023-12-20T11:47:37;32.40;;;14.23;;
18338;SDS011;9295;44.484;11.240;2023-12-20T11:50:06;22.67;;;14.20;;
18338;SDS011;9295;44.484;11.240;2023-12-20T11:52:35;21.37;;;13.57;;
18338;SDS011;9295;44.484;11.240;2023-12-20T11:55:06;25.17;;;15.60;;
18338;SDS011;9295;44.484;11.240;2023-12-20T11:57:35;27.00;;;15.20;;
18338;SDS011;9295;44.484;11.240;2023-12-20T12:00:04;28.93;;;16.80;;
18338;SDS011;9295;44.484;11.240;2023-12-20T12:02:38;26.87;;;17.07;;
18338;SDS011;9295;44.484;11.240;2023-12-20T12:05:07;28.80;;;17.60;;
18338;SDS011;9295;44.484;11.240;2023-12-20T12:07:36;29.93;;;17.90;;
18338;SDS011;9295;44.484;11.240;2023-12-20T12:10:07;37.50;;;20.17;;
18338;SDS011;9295;44.484;11.240;2023-12-20T12:12:36;34.87;;;19.60;;
18338;SDS011;9295;44.484;11.240;2023-12-20T12:15:05;29.80;;;19.90;;
18338;SDS011;9295;44.484;11.240;2023-12-20T12:17:35;37.93;;;21.13;;
18338;SDS011;9295;44.484;11.240;2023-12-20T12:20:04;36.97;;;20.57;;
18338;SDS011;9295;44.484;11.240;2023-12-20T12:22:36;37.63;;;20.93;;
18338;SDS011;9295;44.484;11.240;2023-12-20T12:25:13;41.00;;;22.77;;
18338;SDS011;9295;44.484;11.240;2023-12-20T12:27:42;37.17;;;21.67;;
18338;SDS011;9295;44.484;11.240;2023-12-20T12:30:12;35.20;;;21.27;;
18338;SDS011;9295;44.484;11.240;2023-12-20T12:32:43;36.17;;;22.37;;
18338;SDS011;9295;44.484;11.240;2023-12-20T12:35:13;35.97;;;21.30;;
18338;SDS011;9295;44.484;11.240;2023-12-20T12:37:42;31.50;;;20.40;;
18338;SDS011;9295;44.484;11.240;2023-12-20T12:40:13;33.40;;;20.03;;
18338;SDS011;9295;44.484;11.240;2023-12-20T12:42:43;32.37;;;20.00;;
18338;SDS011;9295;44.484;11.240;2023-12-20T12:45:13;30.90;;;18.67;;
18338;SDS011;9295;44.484;11.240;2023-12-20T12:47:42;31.93;;;19.50;;
18338;SDS011;9295;44.484;11.240;2023-12-20T12:50:13;34.93;;;18.93;;
18338;SDS011;9295;44.484;11.240;2023-12-20T12:52:42;28.50;;;18.20;;
18338;SDS011;9295;44.484;11.240;2023-12-20T12:55:10;26.67;;;17.13;;
18338;SDS011;9295;44.484;11.240;2023-12-20T12:57:40;30.37;;;18.20;;
18338;SDS011;9295;44.484;11.240;2023-12-20T13:00:11;27.43;;;16.67;;
18338;SDS011;9295;44.484;11.240;2023-12-20T13:02:40;35.20;;;18.00;;
18338;SDS011;9295;44.484;11.240;2023-12-20T13:05:09;37.20;;;17.10;;
18338;SDS011;9295;44.484;11.240;2023-12-20T13:07:38;29.07;;;16.93;;
18338;SDS011;9295;44.484;11.240;2023-12-20T13:10:07;28.90;;;16.47;;
18338;SDS011;9295;44.484;11.240;2023-12-20T13:12:39;30.37;;;17.63;;
18338;SDS011;9295;44.484;11.240;2023-12-20T13:15:07;30.57;;;18.20;;
18338;SDS011;9295;44.484;11.240;2023-12-20T13:17:36;31.37;;;18.10;;
18338;SDS011;9295;44.484;11.240;2023-12-20T13:20:07;36.70;;;19.07;;
18338;SDS011;9295;44.484;11.240;2023-12-20T13:22:36;31.63;;;17.90;;
18338;SDS011;9295;44.484;11.240;2023-12-20T13:25:05;32.17;;;19.13;;
18338;SDS011;9295;44.484;11.240;2023-12-20T13:27:34;40.53;;;20.47;;
18338;SDS011;9295;44.484;11.240;2023-12-20T13:30:06;36.30;;;20.13;;
18338;SDS011;9295;44.484;11.240;2023-12-20T13:32:35;29.37;;;18.30;;
18338;SDS011;9295;44.484;11.240;2023-12-20T13:35:04;38.27;;;19.00;;
18338;SDS011;9295;44.484;11.240;2023-12-20T13:37:33;30.73;;;19.17;;
18338;SDS011;9295;44.484;11.240;2023-12-20T13:40:02;31.17;;;19.40;;
18338;SDS011;9295;44.484;11.240;2023-12-20T13:42:32;33.13;;;18.33;;
18338;SDS011;9295;44.484;11.240;2023-12-20T13:45:01;31.17;;;18.00;;
18338;SDS011;9295;44.484;11.240;2023-12-20T13:47:33;31.93;;;17.57;;
18338;SDS011;9295;44.484;11.240;2023-12-20T13:50:02;34.50;;;19.57;;
18338;SDS011;9295;44.484;11.240;2023-12-20T13:52:31;36.87;;;19.73;;
18338;SDS011;9295;44.484;11.240;2023-12-20T13:55:04;35.93;;;17.80;;
18338;SDS011;9295;44.484;11.240;2023-12-20T13:57:35;32.10;;;18.67;;
18338;SDS011;9295;44.484;11.240;2023-12-20T14:00:09;37.17;;;20.33;;
18338;SDS011;9295;44.484;11.240;2023-12-20T14:02:43;32.97;;;20.10;;
18338;SDS011;9295;44.484;11.240;2023-12-20T14:05:13;36.87;;;20.53;;
18338;SDS011;9295;44.484;11.240;2023-12-20T14:07:44;38.10;;;19.67;;
18338;SDS011;9295;44.484;11.240;2023-12-20T14:10:16;34.10;;;21.70;;
18338;SDS011;9295;44.484;11.240;2023-12-20T14:12:44;37.10;;;21.47;;
18338;SDS011;9295;44.484;11.240;2023-12-20T14:15:13;44.03;;;21.40;;
18338;SDS011;9295;44.484;11.240;2023-12-20T14:17:43;44.10;;;23.23;;
18338;SDS011;9295;44.484;11.240;2023-12-20T14:20:12;41.63;;;21.90;;
18338;SDS011;9295;44.484;11.240;2023-12-20T14:22:41;38.00;;;19.07;;
18338;SDS011;9295;44.484;11.240;2023-12-20T14:25:11;49.07;;;21.63;;
18338;SDS011;9295;44.484;11.240;2023-12-20T14:27:40;47.73;;;22.63;;
18338;SDS011;9295;44.484;11.240;2023-12-20T14:30:12;43.90;;;21.60;;
18338;SDS011;9295;44.484;11.240;2023-12-20T14:32:43;38.60;;;22.50;;
18338;SDS011;9295;44.484;11.240;2023-12-20T14:35:12;38.83;;;22.57;;
18338;SDS011;9295;44.484;11.240;2023-12-20T14:37:41;36.30;;;21.70;;
18338;SDS011;9295;44.484;11.240;2023-12-20T14:40:10;34.87;;;22.00;;
18338;SDS011;9295;44.484;11.240;2023-12-20T14:42:44;42.50;;;22.03;;
18338;SDS011;9295;44.484;11.240;2023-12-20T14:45:14;40.47;;;21.87;;
18338;SDS011;9295;44.484;11.240;2023-12-20T14:47:45;41.63;;;21.63;;
18338;SDS011;9295;44.484;11.240;2023-12-20T14:50:15;39.03;;;22.00;;